Time;durP1;ratioP1;P1;durP2;ratioP2;P2;SDS_P1;SDS_P2;PMS_P1;PMS_P2;Temp;Humidity;BMP_temperature;BMP_pressure;BME280_temperature;BME280_humidity;BME280_pressure;Samples;Min_cycle;Max_cycle;Signal;HPM_P1;HPM_P2
2022/04/15 00:01:32;;;;;;;5.30;3.63;;;;;;;15.05;83.69;98657.47;4144733;28;20697;-86
2022/04/15 00:03:36;;;;;;;5.30;3.97;;;;;;;15.02;84.01;98652.47;4143992;28;20626;-86
2022/04/15 00:05:41;;;;;;;5.30;3.80;;;;;;;14.96;83.52;98658.19;4138305;28;20630;-86
2022/04/15 00:07:44;;;;;;;4.30;3.70;;;;;;;14.93;83.91;98658.44;4156456;28;20656;-85
2022/04/15 00:09:48;;;;;;;5.97;4.13;;;;;;;14.91;83.44;98660.31;4135845;28;21079;-85
2022/04/15 00:11:51;;;;;;;12.73;3.80;;;;;;;14.90;84.42;98658.66;4139747;28;20634;-86
2022/04/15 00:13:56;;;;;;;5.27;4.53;;;;;;;14.88;84.30;98660.53;4139663;28;20631;-86
2022/04/15 00:16:00;;;;;;;6.43;3.70;;;;;;;14.86;84.57;98661.63;4136740;28;20732;-86
2022/04/15 00:18:04;;;;;;;5.00;3.83;;;;;;;14.81;83.89;98659.34;4137201;28;20642;-86
2022/04/15 00:20:10;;;;;;;6.03;3.90;;;;;;;14.74;83.96;98668.66;4142391;28;20675;-86
2022/04/15 00:22:13;;;;;;;6.57;4.00;;;;;;;14.71;84.05;98668.03;4140796;28;20971;-86
2022/04/15 00:24:16;;;;;;;6.93;3.70;;;;;;;14.69;83.83;98670.78;4153308;28;21013;-85
2022/04/15 00:26:20;;;;;;;3.80;3.50;;;;;;;14.67;84.37;98671.84;4133377;28;20714;-86
2022/04/15 00:28:23;;;;;;;5.30;3.50;;;;;;;14.64;84.62;98669.44;4139210;28;20643;-85
2022/04/15 00:30:28;;;;;;;5.00;3.60;;;;;;;14.59;84.93;98669.78;4143487;28;20669;-85
2022/04/15 00:32:31;;;;;;;5.60;3.80;;;;;;;14.57;85.11;98670.88;4141136;28;20666;-86
2022/04/15 00:34:35;;;;;;;6.43;3.60;;;;;;;14.55;84.96;98662.25;4138030;28;20649;-85
2022/04/15 00:36:38;;;;;;;5.47;3.87;;;;;;;14.56;85.53;98660.50;4119663;28;20641;-86
2022/04/15 00:38:42;;;;;;;8.67;3.97;;;;;;;14.52;85.40;98657.25;4139237;28;20645;-86
2022/04/15 00:40:46;;;;;;;4.40;3.43;;;;;;;14.45;85.07;98652.56;4139467;28;21342;-86
2022/04/15 00:42:49;;;;;;;4.50;3.43;;;;;;;14.39;85.02;98656.50;4141580;28;21224;-86
2022/04/15 00:44:54;;;;;;;4.60;3.60;;;;;;;14.37;84.93;98653.16;4136362;28;20758;-86
2022/04/15 00:46:59;;;;;;;6.87;4.07;;;;;;;14.34;85.14;98652.53;4138955;28;20633;-86
2022/04/15 00:49:02;;;;;;;5.20;3.53;;;;;;;14.33;85.81;98656.13;4138229;28;21110;-85
2022/04/15 00:51:06;;;;;;;4.40;3.37;;;;;;;14.33;85.82;98661.38;4142276;28;20699;-86
2022/04/15 00:53:11;;;;;;;5.73;3.83;;;;;;;14.32;86.06;98654.44;4122295;28;21225;-86
2022/04/15 00:55:16;;;;;;;4.77;3.73;;;;;;;14.32;85.87;98663.16;4154744;28;20731;-85
2022/04/15 00:57:25;;;;;;;5.13;4.10;;;;;;;14.29;85.82;98667.78;4121249;28;20642;-86
2022/04/15 00:59:29;;;;;;;5.70;3.90;;;;;;;14.27;85.59;98665.28;4138159;28;20635;-85
2022/04/15 01:01:33;;;;;;;11.57;4.57;;;;;;;14.27;85.80;98664.47;4156449;28;20700;-85
2022/04/15 01:03:38;;;;;;;4.90;3.90;;;;;;;14.22;85.76;98667.41;4143140;28;20698;-85
2022/04/15 01:05:41;;;;;;;7.07;3.53;;;;;;;14.15;85.71;98679.31;4143666;28;21232;-86
2022/04/15 01:07:48;;;;;;;5.40;4.17;;;;;;;14.10;85.89;98677.94;4142602;28;20753;-86
2022/04/15 01:09:53;;;;;;;5.80;4.03;;;;;;;14.11;85.93;98678.81;4126961;28;20717;-86
2022/04/15 01:11:57;;;;;;;6.40;3.53;;;;;;;14.10;86.19;98683.19;4138407;28;20743;-86
2022/04/15 01:14:01;;;;;;;5.40;3.83;;;;;;;14.08;86.59;98679.84;4141060;28;21278;-86
2022/04/15 01:16:05;;;;;;;4.73;3.60;;;;;;;14.09;86.37;98678.06;4137132;28;21398;-86
2022/04/15 01:18:09;;;;;;;5.33;4.30;;;;;;;14.07;86.83;98675.53;4140401;28;20627;-85
2022/04/15 01:20:14;;;;;;;5.80;3.90;;;;;;;14.05;86.81;98672.22;4123294;28;20650;-86
2022/04/15 01:22:18;;;;;;;8.23;4.03;;;;;;;14.03;86.86;98674.09;4156697;28;20691;-86
2022/04/15 01:24:23;;;;;;;4.70;3.27;;;;;;;14.04;87.22;98677.53;4140991;28;20729;-85
2022/04/15 01:26:27;;;;;;;4.73;3.70;;;;;;;14.04;86.88;98673.13;4142856;28;20638;-85
2022/04/15 01:28:30;;;;;;;5.33;3.70;;;;;;;14.05;87.19;98680.06;4138380;28;20665;-85
2022/04/15 01:30:33;;;;;;;4.67;3.53;;;;;;;14.00;87.55;98674.31;4155303;28;20646;-85
2022/04/15 01:32:37;;;;;;;5.00;3.80;;;;;;;13.94;86.93;98671.31;4138133;28;20645;-85
2022/04/15 01:34:40;;;;;;;5.27;4.13;;;;;;;13.87;86.72;98673.50;4141705;28;21259;-86
2022/04/15 01:36:43;;;;;;;5.60;3.57;;;;;;;13.89;86.62;98673.41;4134410;28;20642;-86
2022/04/15 01:38:46;;;;;;;4.50;3.50;;;;;;;13.88;87.13;98669.94;4148973;28;20652;-86
2022/04/15 01:40:52;;;;;;;6.20;4.10;;;;;;;13.90;87.77;98672.47;4134127;28;20637;-85
2022/04/15 01:42:55;;;;;;;6.23;4.20;;;;;;;13.89;87.07;98674.25;4136332;28;20641;-85
2022/04/15 01:44:58;;;;;;;5.37;3.73;;;;;;;13.89;87.42;98676.03;4140241;28;20642;-86
2022/04/15 01:47:01;;;;;;;5.60;3.83;;;;;;;13.86;87.06;98678.84;4141190;28;20705;-86
2022/04/15 01:49:05;;;;;;;5.00;3.60;;;;;;;13.83;87.81;98672.06;4129517;28;20754;-86
2022/04/15 01:51:08;;;;;;;5.07;3.93;;;;;;;13.84;87.96;98678.97;4143954;28;20719;-85
2022/04/15 01:53:12;;;;;;;6.97;4.23;;;;;;;13.83;87.20;98672.06;4144437;28;20646;-86
2022/04/15 01:55:15;;;;;;;4.67;3.77;;;;;;;13.84;87.81;98678.97;4140606;28;20660;-85
2022/04/15 01:57:20;;;;;;;4.70;4.00;;;;;;;13.82;87.09;98686.13;4124852;28;20670;-86
2022/04/15 01:59:24;;;;;;;6.43;4.43;;;;;;;13.82;87.72;98677.44;4125745;28;20646;-85
2022/04/15 02:01:27;;;;;;;6.83;4.10;;;;;;;13.77;87.47;98683.00;4155335;28;20649;-85
2022/04/15 02:03:30;;;;;;;6.60;4.20;;;;;;;13.71;87.18;98667.72;4156710;28;20672;-85
2022/04/15 02:05:34;;;;;;;5.30;3.70;;;;;;;13.71;87.67;98675.56;4144134;28;20672;-85
2022/04/15 02:07:38;;;;;;;5.50;4.27;;;;;;;13.68;87.94;98678.41;4144132;28;20633;-85
2022/04/15 02:09:41;;;;;;;9.70;4.20;;;;;;;13.67;88.07;98674.09;4142835;28;20649;-86
2022/04/15 02:11:44;;;;;;;6.70;5.00;;;;;;;13.61;87.57;98681.56;4124826;28;24495;-85
2022/04/15 02:13:49;;;;;;;6.67;5.83;;;;;;;13.58;88.03;98675.72;4146063;28;20760;-85
2022/04/15 02:15:52;;;;;;;6.33;5.03;;;;;;;13.55;87.14;98684.63;4160051;28;21171;-86
2022/04/15 02:17:57;;;;;;;8.40;4.80;;;;;;;13.48;87.45;98682.53;4145313;28;20748;-85
2022/04/15 02:20:01;;;;;;;5.93;4.23;;;;;;;13.39;87.88;98680.56;4136980;28;21075;-86
2022/04/15 02:22:04;;;;;;;8.23;5.00;;;;;;;13.33;87.62;98681.81;4133071;28;20741;-85
2022/04/15 02:24:08;;;;;;;6.23;4.33;;;;;;;13.31;87.04;98678.47;4142896;28;21025;-85
2022/04/15 02:26:11;;;;;;;6.10;4.30;;;;;;;13.30;86.91;98691.69;4138175;28;20680;-85
2022/04/15 02:28:14;;;;;;;6.53;4.10;;;;;;;13.28;86.58;98678.69;4141346;28;20681;-85
2022/04/15 02:30:19;;;;;;;6.93;4.67;;;;;;;13.27;88.59;98684.03;4137023;28;20705;-85
2022/04/15 02:32:23;;;;;;;5.77;4.57;;;;;;;13.25;86.79;98678.91;4141421;28;21111;-85
2022/04/15 02:34:27;;;;;;;6.40;5.07;;;;;;;13.24;88.45;98676.41;4144011;28;20685;-85
2022/04/15 02:36:30;;;;;;;8.73;4.93;;;;;;;13.23;88.05;98685.22;4141749;28;20683;-85
2022/04/15 02:38:34;;;;;;;6.90;4.93;;;;;;;13.21;87.95;98687.09;4153628;28;20669;-85
2022/04/15 02:40:38;;;;;;;7.10;5.33;;;;;;;13.20;87.49;98683.63;4136821;28;20689;-86
2022/04/15 02:42:42;;;;;;;6.10;4.70;;;;;;;13.18;88.88;98683.84;4144682;28;20633;-85
2022/04/15 02:44:45;;;;;;;5.27;4.77;;;;;;;13.16;88.74;98686.56;4143086;28;20648;-85
2022/04/15 02:46:50;;;;;;;7.17;5.03;;;;;;;13.14;88.38;98691.09;4143155;28;20649;-85
2022/04/15 02:48:53;;;;;;;7.30;5.20;;;;;;;13.13;87.54;98697.25;4140270;28;20658;-86
2022/04/15 02:50:57;;;;;;;8.10;4.87;;;;;;;13.09;88.03;98694.97;4151926;28;21154;-85
2022/04/15 02:53:01;;;;;;;7.83;4.80;;;;;;;13.05;88.92;98696.97;4143320;28;20629;-86
2022/04/15 02:55:06;;;;;;;7.57;4.57;;;;;;;13.01;87.21;98698.09;4138785;28;20676;-85
2022/04/15 02:57:09;;;;;;;8.43;4.97;;;;;;;12.98;88.90;98690.44;4144377;28;20648;-85
2022/04/15 02:59:12;;;;;;;6.10;4.90;;;;;;;12.95;88.26;98698.50;4159241;28;21438;-85
2022/04/15 03:01:16;;;;;;;7.40;4.97;;;;;;;12.92;87.50;98690.88;4141935;28;20633;-86
2022/04/15 03:03:20;;;;;;;7.27;4.50;;;;;;;12.90;87.31;98697.13;4147665;28;20716;-86
2022/04/15 03:05:24;;;;;;;7.33;5.07;;;;;;;12.86;88.57;98696.53;4148638;28;20648;-85
2022/04/15 03:07:27;;;;;;;7.07;5.10;;;;;;;12.83;88.65;98694.09;4142457;28;20645;-85
2022/04/15 03:09:30;;;;;;;9.27;5.60;;;;;;;12.82;88.64;98699.41;4142453;28;21228;-85
2022/04/15 03:11:37;;;;;;;6.70;5.23;;;;;;;12.80;87.72;98691.66;4156980;28;20668;-85
2022/04/15 03:13:40;;;;;;;6.37;4.53;;;;;;;12.78;87.74;98690.94;4155631;28;20634;-85
2022/04/15 03:15:44;;;;;;;5.90;4.63;;;;;;;12.74;88.09;98691.25;4144615;28;21050;-85
2022/04/15 03:17:47;;;;;;;5.47;4.70;;;;;;;12.66;87.63;98695.31;4155592;28;20659;-85
2022/04/15 03:19:52;;;;;;;6.30;4.40;;;;;;;12.61;87.92;98695.63;4138445;28;20992;-85
2022/04/15 03:21:55;;;;;;;6.67;5.00;;;;;;;12.60;87.60;98695.72;4120539;28;20638;-85
2022/04/15 03:23:59;;;;;;;5.50;4.50;;;;;;;12.55;88.97;98700.44;4142657;28;20962;-85
2022/04/15 03:26:02;;;;;;;10.60;4.50;;;;;;;12.46;88.43;98699.28;4141872;28;20733;-85
2022/04/15 03:28:06;;;;;;;7.70;4.60;;;;;;;12.41;88.96;98708.34;4139207;28;20639;-85
2022/04/15 03:30:11;;;;;;;5.93;4.20;;;;;;;12.39;88.10;98707.63;4144639;28;20694;-85
2022/04/15 03:32:14;;;;;;;7.20;4.43;;;;;;;12.40;87.27;98711.91;4158050;28;20656;-85
2022/04/15 03:34:17;;;;;;;5.53;4.70;;;;;;;12.39;89.45;98707.63;4140840;28;20669;-85
2022/04/15 03:36:22;;;;;;;5.83;4.70;;;;;;;12.36;88.68;98716.50;4146955;28;20655;-85
2022/04/15 03:38:25;;;;;;;5.20;4.40;;;;;;;12.36;87.53;98713.88;4142456;28;20643;-85
2022/04/15 03:40:29;;;;;;;7.23;4.83;;;;;;;12.35;87.49;98700.91;4139219;28;20824;-85
2022/04/15 03:42:32;;;;;;;12.40;5.67;;;;;;;12.36;87.40;98706.03;4142708;28;20701;-85
2022/04/15 03:44:35;;;;;;;6.50;4.80;;;;;;;12.34;88.24;98707.94;4141582;28;20631;-85
2022/04/15 03:46:40;;;;;;;7.87;5.10;;;;;;;12.36;89.56;98710.44;4123424;28;21228;-85
2022/04/15 03:48:44;;;;;;;6.30;4.50;;;;;;;12.33;90.43;98702.78;4156946;28;20649;-85
2022/04/15 03:50:48;;;;;;;6.70;5.20;;;;;;;12.28;89.77;98713.56;4141667;28;20648;-85
2022/04/15 03:52:54;;;;;;;6.50;4.97;;;;;;;12.19;88.39;98713.28;4142560;28;20636;-85
2022/04/15 03:54:58;;;;;;;7.00;4.30;;;;;;;12.08;87.63;98710.53;4143345;28;20694;-85
2022/04/15 03:57:02;;;;;;;6.03;4.93;;;;;;;11.99;87.16;98713.75;4140422;28;21012;-85
2022/04/15 03:59:05;;;;;;;6.40;5.20;;;;;;;11.95;87.34;98708.81;4135629;28;20658;-85
2022/04/15 04:01:08;;;;;;;9.10;5.23;;;;;;;11.92;87.57;98704.63;4135797;28;20634;-85
2022/04/15 04:03:13;;;;;;;6.10;4.97;;;;;;;11.94;88.66;98710.59;4135118;28;20749;-85
2022/04/15 04:05:17;;;;;;;6.70;4.90;;;;;;;11.95;89.02;98709.66;4117460;28;21711;-85
2022/04/15 04:07:21;;;;;;;7.07;4.53;;;;;;;11.93;88.26;98706.28;4134492;28;20627;-85
2022/04/15 04:09:25;;;;;;;7.30;5.00;;;;;;;11.92;88.23;98707.25;4142288;28;21241;-85
2022/04/15 04:11:29;;;;;;;6.67;4.97;;;;;;;11.91;88.53;98709.97;4140154;28;21072;-85
2022/04/15 04:13:32;;;;;;;6.10;4.73;;;;;;;11.91;88.43;98717.81;4138522;28;20654;-85
2022/04/15 04:15:36;;;;;;;6.90;5.20;;;;;;;11.93;88.17;98719.34;4139653;28;20651;-85
2022/04/15 04:17:39;;;;;;;6.53;5.17;;;;;;;11.92;89.52;98717.72;4151049;28;20690;-85
2022/04/15 04:19:42;;;;;;;6.57;5.20;;;;;;;11.93;89.45;98716.75;4135926;28;20993;-85
2022/04/15 04:21:46;;;;;;;7.27;4.97;;;;;;;11.83;89.51;98718.28;4139981;28;20663;-85
2022/04/15 04:23:50;;;;;;;8.33;5.00;;;;;;;11.75;88.12;98717.91;4139573;28;20633;-85
2022/04/15 04:25:55;;;;;;;6.10;4.83;;;;;;;11.70;87.41;98723.50;4138700;28;20635;-85
2022/04/15 04:27:58;;;;;;;7.17;5.00;;;;;;;11.71;87.73;98725.19;4135309;28;20649;-85
2022/04/15 04:30:06;;;;;;;5.30;4.40;;;;;;;11.70;88.49;98724.38;4144454;28;20667;-85
2022/04/15 04:32:10;;;;;;;7.27;5.20;;;;;;;11.70;88.51;98723.50;4140674;28;20663;-85
2022/04/15 04:34:13;;;;;;;6.53;5.07;;;;;;;11.69;89.10;98729.69;4142613;28;20674;-85
2022/04/15 04:36:16;;;;;;;6.07;5.23;;;;;;;11.71;89.08;98725.19;4141740;28;20668;-85
2022/04/15 04:38:20;;;;;;;6.13;4.90;;;;;;;11.71;89.62;98730.44;4156065;28;20737;-85
2022/04/15 04:40:23;;;;;;;5.80;5.20;;;;;;;11.71;89.18;98725.19;4157834;28;20760;-85
2022/04/15 04:42:28;;;;;;;7.37;5.27;;;;;;;11.70;88.73;98726.13;4160840;28;20709;-86
2022/04/15 04:44:32;;;;;;;6.63;5.07;;;;;;;11.75;89.60;98741.44;4143634;28;21294;-85
2022/04/15 04:46:36;;;;;;;7.03;5.00;;;;;;;11.78;89.31;98735.19;4143611;28;21212;-85
2022/04/15 04:48:42;;;;;;;5.43;4.90;;;;;;;11.83;90.65;98739.19;4139427;28;20746;-85
2022/04/15 04:50:46;;;;;;;5.63;5.03;;;;;;;11.86;89.30;98741.63;4138060;28;20653;-85
2022/04/15 04:52:50;;;;;;;7.43;5.63;;;;;;;11.88;90.66;98749.34;4143448;28;20706;-85
2022/04/15 04:54:53;;;;;;;6.17;4.73;;;;;;;11.89;90.89;98751.88;4148782;28;21429;-85
2022/04/15 04:56:56;;;;;;;6.63;4.80;;;;;;;11.89;91.16;98751.03;4140399;28;20722;-85
2022/04/15 04:59:01;;;;;;;10.23;4.90;;;;;;;11.85;89.67;98746.94;4140109;28;20646;-85
2022/04/15 05:01:04;;;;;;;9.77;5.27;;;;;;;11.85;89.57;98754.78;4152802;28;21186;-85
2022/04/15 05:03:08;;;;;;;7.23;5.27;;;;;;;11.84;88.84;98755.69;4137228;28;20659;-85
2022/04/15 05:05:12;;;;;;;6.77;5.00;;;;;;;11.87;89.04;98758.94;4137923;28;21089;-85
2022/04/15 05:07:15;;;;;;;8.30;5.47;;;;;;;11.91;90.16;98760.44;4148511;28;20628;-85
2022/04/15 05:09:18;;;;;;;6.70;5.47;;;;;;;11.98;90.56;98763.50;4119396;28;20699;-85
2022/04/15 05:11:22;;;;;;;7.60;5.67;;;;;;;12.07;89.87;98763.78;4140777;28;20781;-85
2022/04/15 05:13:26;;;;;;;6.40;4.90;;;;;;;12.20;90.28;98758.59;4158321;28;20626;-85
2022/04/15 05:15:30;;;;;;;6.03;4.70;;;;;;;12.33;89.43;98765.56;4136317;28;20623;-85
2022/04/15 05:17:34;;;;;;;7.50;5.20;;;;;;;12.45;88.69;98770.00;4138896;28;21210;-85
2022/04/15 05:19:37;;;;;;;8.20;5.77;;;;;;;12.59;87.66;98772.56;4142283;28;20651;-85
2022/04/15 05:21:41;;;;;;;7.23;4.80;;;;;;;12.68;87.67;98778.03;4120507;28;20711;-85
2022/04/15 05:23:45;;;;;;;7.03;4.97;;;;;;;12.71;88.23;98781.28;4160208;28;20640;-85
2022/04/15 05:25:49;;;;;;;6.57;4.70;;;;;;;12.72;87.88;98785.56;4143396;28;20673;-85
2022/04/15 05:27:53;;;;;;;5.53;4.53;;;;;;;12.83;86.72;98785.72;4137156;28;20676;-85
2022/04/15 05:29:56;;;;;;;8.03;4.90;;;;;;;12.99;87.91;98777.69;4142216;28;20694;-85
2022/04/15 05:32:01;;;;;;;7.27;5.57;;;;;;;13.14;87.60;98782.75;4142291;28;20674;-85
2022/04/15 05:34:05;;;;;;;7.47;4.73;;;;;;;13.31;87.07;98787.69;4144270;28;21262;-85
2022/04/15 05:36:08;;;;;;;6.23;4.70;;;;;;;13.42;85.59;98785.16;4120127;28;20654;-85
2022/04/15 05:38:11;;;;;;;4.97;4.47;;;;;;;13.57;85.56;98789.34;4125332;28;20658;-85
2022/04/15 05:40:15;;;;;;;5.67;4.63;;;;;;;13.68;85.18;98792.91;4143724;28;20654;-85
2022/04/15 05:42:18;;;;;;;5.40;4.50;;;;;;;13.69;84.71;98798.03;4125871;28;20894;-85
2022/04/15 05:44:21;;;;;;;7.23;4.93;;;;;;;13.70;84.54;98793.66;4155732;28;20642;-85
2022/04/15 05:46:27;;;;;;;6.90;5.13;;;;;;;13.84;85.07;98793.53;4153937;28;21270;-85
2022/04/15 05:48:31;;;;;;;8.80;4.90;;;;;;;13.98;84.48;98799.47;4156305;28;20642;-85
2022/04/15 05:50:35;;;;;;;7.13;5.03;;;;;;;14.08;84.16;98797.91;4142534;28;21279;-85
2022/04/15 05:52:38;;;;;;;6.90;5.20;;;;;;;14.20;83.41;98802.28;4143022;28;20633;-85
2022/04/15 05:54:43;;;;;;;7.20;5.00;;;;;;;14.29;82.24;98805.06;4146059;28;20640;-85
2022/04/15 05:56:47;;;;;;;9.07;5.07;;;;;;;14.35;82.28;98802.00;4136806;28;20688;-85
2022/04/15 05:58:50;;;;;;;10.30;4.80;;;;;;;14.50;82.41;98805.31;4141970;28;20641;-85
2022/04/15 06:00:53;;;;;;;6.83;4.80;;;;;;;14.70;82.45;98808.16;4160646;28;20668;-85
2022/04/15 06:02:57;;;;;;;8.47;5.40;;;;;;;14.90;82.40;98813.63;4133759;28;20647;-85
2022/04/15 06:05:02;;;;;;;7.53;5.23;;;;;;;15.07;81.58;98813.22;4136679;28;20649;-85
2022/04/15 06:07:05;;;;;;;7.73;4.93;;;;;;;15.12;81.13;98816.31;4138399;28;20657;-85
2022/04/15 06:09:08;;;;;;;7.20;5.13;;;;;;;15.19;80.46;98817.59;4160544;28;20648;-85
2022/04/15 06:11:12;;;;;;;7.40;5.20;;;;;;;15.26;80.79;98814.38;4135891;28;20764;-85
2022/04/15 06:13:19;;;;;;;5.70;5.03;;;;;;;15.15;82.37;98822.22;4146991;28;20660;-85
2022/04/15 06:15:24;;;;;;;8.43;5.23;;;;;;;15.02;81.35;98822.38;4143743;28;20681;-85
2022/04/15 06:17:27;;;;;;;7.03;5.77;;;;;;;14.89;80.48;98826.88;4141258;28;20713;-85
2022/04/15 06:19:31;;;;;;;6.10;5.20;;;;;;;14.80;80.03;98823.13;4140837;28;21016;-85
2022/04/15 06:21:39;;;;;;;6.80;5.53;;;;;;;14.78;80.62;98832.94;4138213;28;21300;-85
2022/04/15 06:23:45;;;;;;;5.73;4.87;;;;;;;14.86;83.57;98827.94;4136524;28;21006;-85
2022/04/15 06:25:49;;;;;;;6.37;5.33;;;;;;;15.08;81.92;98830.66;4155237;28;20682;-85
2022/04/15 06:27:52;;;;;;;6.10;5.53;;;;;;;15.17;82.39;98824.75;4139631;28;21045;-85
2022/04/15 06:29:55;;;;;;;5.87;5.27;;;;;;;15.09;82.45;98827.06;4138202;28;20729;-85
2022/04/15 06:31:59;;;;;;;10.43;5.80;;;;;;;15.01;82.33;98823.34;4138405;28;20642;-85
2022/04/15 06:34:03;;;;;;;7.50;5.43;;;;;;;15.03;84.06;98819.63;4152606;28;20690;-85
2022/04/15 06:36:07;;;;;;;8.50;5.57;;;;;;;15.41;83.18;98830.78;4139485;28;20634;-85
2022/04/15 06:38:11;;;;;;;8.80;6.07;;;;;;;15.59;81.64;98831.06;4140978;28;20689;-85
2022/04/15 06:40:14;;;;;;;8.43;6.07;;;;;;;15.69;80.95;98833.81;4162647;28;21258;-85
2022/04/15 06:42:22;;;;;;;6.33;5.70;;;;;;;15.86;80.24;98823.69;4143376;28;21249;-86
2022/04/15 06:44:25;;;;;;;7.10;5.67;;;;;;;16.14;80.22;98831.91;4140736;28;21278;-85
2022/04/15 06:46:28;;;;;;;7.33;5.60;;;;;;;16.47;80.50;98834.53;4158316;28;20735;-85
2022/04/15 06:48:32;;;;;;;6.77;6.10;;;;;;;16.72;79.25;98835.06;4144984;28;20633;-85
2022/04/15 06:50:35;;;;;;;7.57;5.70;;;;;;;16.95;79.11;98839.31;4137572;28;20645;-85
2022/04/15 06:52:39;;;;;;;6.30;5.47;;;;;;;17.18;78.58;98846.16;4143089;28;20682;-85
2022/04/15 06:54:44;;;;;;;7.00;5.37;;;;;;;17.39;79.47;98841.78;4140455;28;20661;-85
2022/04/15 06:56:47;;;;;;;11.00;6.00;;;;;;;17.56;77.77;98840.22;4140938;28;20735;-85
2022/04/15 06:58:52;;;;;;;6.60;5.80;;;;;;;17.76;77.08;98841.19;4162536;28;20640;-85
2022/04/15 07:00:55;;;;;;;7.83;5.70;;;;;;;17.90;76.85;98840.84;4145938;28;20752;-85
2022/04/15 07:02:59;;;;;;;8.50;7.70;;;;;;;18.03;76.38;98840.47;4130697;28;21523;-85
2022/04/15 07:05:03;;;;;;;6.87;6.17;;;;;;;18.12;76.24;98836.22;4142432;28;20647;-85
2022/04/15 07:07:06;;;;;;;6.70;6.00;;;;;;;18.31;77.36;98836.31;4142710;28;24138;-85
2022/04/15 07:09:09;;;;;;;7.70;6.30;;;;;;;18.51;75.53;98847.66;4138376;28;20619;-85
2022/04/15 07:11:15;;;;;;;7.63;6.20;;;;;;;18.63;74.58;98846.56;4134867;28;20690;-85
2022/04/15 07:13:19;;;;;;;7.33;6.60;;;;;;;18.82;75.93;98851.03;4124016;28;21436;-85
2022/04/15 07:15:24;;;;;;;8.50;6.40;;;;;;;18.97;75.55;98846.06;4124888;28;20643;-85
2022/04/15 07:17:27;;;;;;;10.10;7.80;;;;;;;19.12;74.91;98849.97;4139981;28;21011;-85
2022/04/15 07:19:31;;;;;;;9.57;8.57;;;;;;;19.24;75.68;98853.34;4136891;28;20622;-85
2022/04/15 07:21:34;;;;;;;9.97;8.37;;;;;;;19.27;73.78;98853.06;4117847;28;20647;-85
2022/04/15 07:23:38;;;;;;;8.20;7.30;;;;;;;19.30;73.29;98843.03;4149685;28;20629;-85
2022/04/15 07:25:41;;;;;;;9.73;7.67;;;;;;;19.53;73.44;98845.25;4139487;28;20637;-85
2022/04/15 07:27:46;;;;;;;9.60;8.60;;;;;;;19.74;73.73;98845.91;4134550;28;20661;-85
2022/04/15 07:29:49;;;;;;;10.20;9.20;;;;;;;19.91;72.08;98845.19;4136787;28;20737;-86
2022/04/15 07:31:53;;;;;;;10.10;9.10;;;;;;;19.97;71.38;98850.75;4136376;28;21004;-85
2022/04/15 07:33:56;;;;;;;10.90;9.63;;;;;;;19.91;72.51;98850.50;4133226;28;20677;-85
2022/04/15 07:35:59;;;;;;;10.27;8.90;;;;;;;20.00;71.30;98846.97;4131558;28;20685;-85
2022/04/15 07:38:07;;;;;;;8.60;7.50;;;;;;;20.13;70.71;98850.13;4148535;28;20781;-85
2022/04/15 07:40:12;;;;;;;8.97;8.00;;;;;;;20.27;70.57;98853.16;4133881;28;20674;-85
2022/04/15 07:42:15;;;;;;;9.20;8.00;;;;;;;20.35;68.77;98856.72;4141659;28;21242;-85
2022/04/15 07:44:20;;;;;;;9.77;8.87;;;;;;;20.47;69.91;98860.84;4138293;28;20662;-85
2022/04/15 07:46:24;;;;;;;8.80;7.90;;;;;;;20.59;70.57;98849.06;4146747;28;20733;-85
2022/04/15 07:48:27;;;;;;;10.37;8.60;;;;;;;20.63;67.34;98850.47;4159868;28;20626;-81
2022/04/15 07:50:31;;;;;;;9.03;8.13;;;;;;;20.64;67.88;98857.44;4140896;28;20631;-84
2022/04/15 07:52:35;;;;;;;9.33;8.33;;;;;;;20.81;69.74;98854.00;4134942;28;20658;-86
2022/04/15 07:54:39;;;;;;;9.50;8.60;;;;;;;20.89;68.25;98852.25;4151034;28;20992;-85
2022/04/15 07:56:42;;;;;;;10.83;8.93;;;;;;;21.00;66.41;98854.72;4134509;28;20634;-85
2022/04/15 07:58:46;;;;;;;11.83;8.90;;;;;;;21.07;68.57;98855.78;4123199;28;20761;-87
2022/04/15 08:00:50;;;;;;;9.63;8.10;;;;;;;21.14;67.93;98861.31;4137988;28;20744;-87
2022/04/15 08:02:59;;;;;;;9.50;8.40;;;;;;;21.27;68.31;98862.59;4144627;28;20698;-88
2022/04/15 08:05:03;;;;;;;9.93;8.20;;;;;;;21.39;69.21;98859.59;4156730;28;20622;-85
2022/04/15 08:07:06;;;;;;;10.60;9.50;;;;;;;21.48;69.47;98852.53;4134946;28;20737;-84
2022/04/15 08:09:18;;;;;;;10.90;9.10;;;;;;;21.63;67.18;98853.66;4139785;28;21206;-85
2022/04/15 08:11:31;;;;;;;12.07;10.33;;;;;;;21.65;66.52;98847.22;4134528;28;20634;-86
2022/04/15 08:13:43;;;;;;;10.83;9.57;;;;;;;21.71;66.48;98843.94;4132564;28;20725;-84
2022/04/15 08:15:57;;;;;;;11.47;10.03;;;;;;;21.67;65.81;98844.41;4141378;28;20669;-85
2022/04/15 08:18:10;;;;;;;12.33;10.03;;;;;;;21.69;66.07;98847.72;4122565;28;21510;-89
2022/04/15 08:20:14;;;;;;;13.63;10.57;;;;;;;21.82;66.69;98856.97;4153559;28;20731;-87
2022/04/15 08:22:18;;;;;;;12.43;11.13;;;;;;;21.98;66.25;98849.94;4136572;28;20631;-85
2022/04/15 08:24:21;;;;;;;12.50;10.90;;;;;;;22.17;65.29;98848.88;4159036;28;20645;-84
2022/04/15 08:26:25;;;;;;;14.50;11.67;;;;;;;22.36;65.22;98860.16;4142820;28;20749;-84
2022/04/15 08:28:28;;;;;;;12.80;10.80;;;;;;;22.39;64.22;98862.50;4162560;28;20667;-83
2022/04/15 08:30:33;;;;;;;12.03;10.77;;;;;;;22.28;63.53;98863.59;4158730;28;20653;-84
2022/04/15 08:32:38;;;;;;;12.20;9.97;;;;;;;22.25;64.34;98858.59;4144721;28;20686;-84
2022/04/15 08:34:43;;;;;;;9.83;8.67;;;;;;;22.19;65.50;98853.06;4139368;28;20670;-85
2022/04/15 08:36:47;;;;;;;11.13;9.93;;;;;;;22.27;64.98;98866.41;4120968;28;20636;-85
2022/04/15 08:38:51;;;;;;;10.77;9.20;;;;;;;22.32;64.93;98864.09;4167593;28;20636;-85
2022/04/15 08:40:57;;;;;;;10.53;9.43;;;;;;;22.32;66.06;98862.25;4127424;28;20650;-85
2022/04/15 08:43:00;;;;;;;11.00;9.90;;;;;;;22.27;65.88;98861.91;4145735;28;20636;-85
2022/04/15 08:45:08;;;;;;;11.23;9.73;;;;;;;22.33;66.11;98863.94;4126520;28;20640;-85
2022/04/15 08:47:11;;;;;;;11.20;10.20;;;;;;;22.42;64.97;98862.16;4167617;28;20636;-86
2022/04/15 08:49:19;;;;;;;14.83;10.20;;;;;;;22.50;66.63;98857.69;4158741;28;20634;-85
2022/04/15 08:51:22;;;;;;;12.60;10.33;;;;;;;22.61;65.75;98868.03;4135738;28;20642;-85
2022/04/15 08:53:25;;;;;;;12.17;9.77;;;;;;;22.70;65.59;98859.09;4134374;28;20658;-84
2022/04/15 08:55:29;;;;;;;10.93;9.93;;;;;;;22.67;65.38;98859.41;4154495;28;20661;-85
2022/04/15 08:57:33;;;;;;;12.30;11.07;;;;;;;22.80;65.72;98863.28;4140704;28;20642;-85
2022/04/15 08:59:36;;;;;;;11.00;10.00;;;;;;;22.88;65.07;98858.03;4134628;28;21582;-86
2022/04/15 09:01:40;;;;;;;11.53;10.43;;;;;;;22.94;65.34;98859.22;4142245;28;20638;-86
2022/04/15 09:03:43;;;;;;;12.30;11.10;;;;;;;22.89;64.95;98853.53;4140161;28;20621;-86
2022/04/15 09:05:51;;;;;;;16.10;13.80;;;;;;;22.96;64.45;98860.72;4160449;28;20691;-86
2022/04/15 09:08:10;;;;;;;12.30;11.00;;;;;;;23.03;64.18;98860.91;4160429;28;21290;-85
2022/04/15 09:10:16;;;;;;;12.27;10.80;;;;;;;23.20;66.84;98856.28;4119690;28;20643;-87
2022/04/15 09:12:19;;;;;;;14.07;12.37;;;;;;;23.37;64.51;98859.81;4143849;28;20634;-86
2022/04/15 09:14:23;;;;;;;12.70;11.50;;;;;;;23.49;64.35;98856.63;4160571;28;20633;-86
2022/04/15 09:16:26;;;;;;;13.80;11.83;;;;;;;23.64;62.51;98865.66;4142580;28;20693;-86
2022/04/15 09:18:31;;;;;;;13.97;12.63;;;;;;;23.55;64.67;98863.97;4138309;28;20709;-83
2022/04/15 09:20:34;;;;;;;13.87;12.47;;;;;;;23.52;63.92;98861.63;4144233;28;20618;-89
2022/04/15 09:22:40;;;;;;;14.07;12.67;;;;;;;23.63;62.75;98868.47;4148836;28;20631;-88
2022/04/15 09:24:43;;;;;;;16.47;12.70;;;;;;;23.63;62.99;98863.13;4150391;28;20705;-82
2022/04/15 09:26:48;;;;;;;14.80;13.30;;;;;;;23.68;62.69;98861.69;4126549;28;20650;-83
2022/04/15 09:28:53;;;;;;;16.67;13.10;;;;;;;23.50;63.88;98866.31;4149853;28;20691;-82
2022/04/15 09:30:57;;;;;;;15.50;14.10;;;;;;;23.12;62.51;98855.44;4147389;28;20673;-82
2022/04/15 09:33:02;;;;;;;15.87;14.27;;;;;;;22.62;64.08;98851.09;4143085;28;21009;-83
2022/04/15 09:35:07;;;;;;;16.63;14.40;;;;;;;22.36;63.99;98853.00;4128245;28;20661;-82
2022/04/15 09:37:10;;;;;;;16.27;13.20;;;;;;;22.03;65.99;98852.13;4158655;28;20664;-84
2022/04/15 09:39:15;;;;;;;15.90;14.13;;;;;;;21.78;64.83;98842.31;4141482;28;20638;-80
2022/04/15 09:41:22;;;;;;;16.67;15.07;;;;;;;21.70;65.29;98852.06;4156531;28;20641;-82
2022/04/15 09:43:26;;;;;;;16.07;14.07;;;;;;;21.73;65.76;98843.78;4118740;28;20673;-75